sensor_id;sensor_type;location;lat;lon;timestamp;temperature;humidity
40257;DHT22;25977;45.462;9.210;2024-01-06T00:01:11;9.80;99.90
40257;DHT22;25977;45.462;9.210;2024-01-06T00:03:37;9.80;99.90
40257;DHT22;25977;45.462;9.210;2024-01-06T00:06:03;9.80;99.90
40257;DHT22;25977;45.462;9.210;2024-01-06T00:08:29;9.80;99.90
40257;DHT22;25977;45.462;9.210;2024-01-06T00:10:54;9.80;99.90
40257;DHT22;25977;45.462;9.210;2024-01-06T00:13:20;9.90;99.90
40257;DHT22;25977;45.462;9.210;2024-01-06T00:15:46;9.80;99.90
40257;DHT22;25977;45.462;9.210;2024-01-06T00:18:12;9.90;99.90
40257;DHT22;25977;45.462;9.210;2024-01-06T00:20:37;9.90;99.90
40257;DHT22;25977;45.462;9.210;2024-01-06T00:23:03;9.80;99.90
40257;DHT22;25977;45.462;9.210;2024-01-06T00:25:29;9.90;99.90
40257;DHT22;25977;45.462;9.210;2024-01-06T00:27:54;9.90;99.90
40257;DHT22;25977;45.462;9.210;2024-01-06T00:30:20;9.90;99.90
40257;DHT22;25977;45.462;9.210;2024-01-06T00:32:46;9.90;99.90
40257;DHT22;25977;45.462;9.210;2024-01-06T00:35:11;9.90;99.90
40257;DHT22;25977;45.462;9.210;2024-01-06T00:37:37;9.90;99.90
40257;DHT22;25977;45.462;9.210;2024-01-06T00:40:03;9.90;99.90
40257;DHT22;25977;45.462;9.210;2024-01-06T00:42:29;9.90;99.90
40257;DHT22;25977;45.462;9.210;2024-01-06T00:44:55;9.90;99.90
40257;DHT22;25977;45.462;9.210;2024-01-06T00:47:21;9.80;99.90
40257;DHT22;25977;45.462;9.210;2024-01-06T00:49:49;9.80;99.90
40257;DHT22;25977;45.462;9.210;2024-01-06T00:52:15;9.70;99.90
40257;DHT22;25977;45.462;9.210;2024-01-06T00:54:40;9.80;99.90
40257;DHT22;25977;45.462;9.210;2024-01-06T00:57:06;9.80;99.90
40257;DHT22;25977;45.462;9.210;2024-01-06T00:59:32;9.80;99.90
40257;DHT22;25977;45.462;9.210;2024-01-06T01:01:57;9.70;99.90
40257;DHT22;25977;45.462;9.210;2024-01-06T01:04:23;9.70;99.90
40257;DHT22;25977;45.462;9.210;2024-01-06T01:06:49;9.80;99.90
40257;DHT22;25977;45.462;9.210;2024-01-06T01:09:15;9.70;99.90
40257;DHT22;25977;45.462;9.210;2024-01-06T01:11:41;9.80;99.90
40257;DHT22;25977;45.462;9.210;2024-01-06T01:14:07;9.70;99.90
40257;DHT22;25977;45.462;9.210;2024-01-06T01:16:33;9.80;99.90
40257;DHT22;25977;45.462;9.210;2024-01-06T01:18:58;9.70;99.90
40257;DHT22;25977;45.462;9.210;2024-01-06T01:21:24;9.80;99.90
40257;DHT22;25977;45.462;9.210;2024-01-06T01:23:50;9.80;99.90
40257;DHT22;25977;45.462;9.210;2024-01-06T01:26:15;9.80;99.90
40257;DHT22;25977;45.462;9.210;2024-01-06T01:28:41;9.80;99.90
40257;DHT22;25977;45.462;9.210;2024-01-06T01:31:08;9.80;99.90
40257;DHT22;25977;45.462;9.210;2024-01-06T01:33:33;9.80;99.90
40257;DHT22;25977;45.462;9.210;2024-01-06T01:35:59;9.70;99.90
40257;DHT22;25977;45.462;9.210;2024-01-06T01:38:24;9.70;99.90
40257;DHT22;25977;45.462;9.210;2024-01-06T01:40:50;9.70;99.90
40257;DHT22;25977;45.462;9.210;2024-01-06T01:43:17;9.70;99.90
40257;DHT22;25977;45.462;9.210;2024-01-06T01:45:45;9.80;99.90
40257;DHT22;25977;45.462;9.210;2024-01-06T01:48:13;9.80;99.90
40257;DHT22;25977;45.462;9.210;2024-01-06T01:50:38;9.70;99.90
40257;DHT22;25977;45.462;9.210;2024-01-06T01:53:04;9.70;99.90
40257;DHT22;25977;45.462;9.210;2024-01-06T01:55:30;9.70;99.90
40257;DHT22;25977;45.462;9.210;2024-01-06T01:57:55;9.70;99.90
40257;DHT22;25977;45.462;9.210;2024-01-06T02:00:21;9.70;99.90
40257;DHT22;25977;45.462;9.210;2024-01-06T02:02:47;9.70;99.90
40257;DHT22;25977;45.462;9.210;2024-01-06T02:05:13;9.70;99.90
40257;DHT22;25977;45.462;9.210;2024-01-06T02:07:38;9.70;99.90
40257;DHT22;25977;45.462;9.210;2024-01-06T02:10:05;9.80;99.90
40257;DHT22;25977;45.462;9.210;2024-01-06T02:12:30;9.80;99.90
40257;DHT22;25977;45.462;9.210;2024-01-06T02:14:56;9.80;99.90
40257;DHT22;25977;45.462;9.210;2024-01-06T02:17:22;9.80;99.90
40257;DHT22;25977;45.462;9.210;2024-01-06T02:19:48;9.80;99.90
40257;DHT22;25977;45.462;9.210;2024-01-06T02:22:20;9.80;99.90
40257;DHT22;25977;45.462;9.210;2024-01-06T02:24:45;9.80;99.90
40257;DHT22;25977;45.462;9.210;2024-01-06T02:27:11;9.80;99.90
40257;DHT22;25977;45.462;9.210;2024-01-06T02:29:37;9.80;99.90
40257;DHT22;25977;45.462;9.210;2024-01-06T02:32:02;9.70;99.90
40257;DHT22;25977;45.462;9.210;2024-01-06T02:34:28;9.80;99.90
40257;DHT22;25977;45.462;9.210;2024-01-06T02:36:54;9.80;99.90
40257;DHT22;25977;45.462;9.210;2024-01-06T02:39:19;9.70;99.90
40257;DHT22;25977;45.462;9.210;2024-01-06T02:41:45;9.70;99.90
40257;DHT22;25977;45.462;9.210;2024-01-06T02:44:10;9.70;99.90
40257;DHT22;25977;45.462;9.210;2024-01-06T02:46:36;9.70;99.90
40257;DHT22;25977;45.462;9.210;2024-01-06T02:49:02;9.80;99.90
40257;DHT22;25977;45.462;9.210;2024-01-06T02:51:27;9.80;99.90
40257;DHT22;25977;45.462;9.210;2024-01-06T02:53:53;9.80;99.90
40257;DHT22;25977;45.462;9.210;2024-01-06T02:56:19;9.80;99.90
40257;DHT22;25977;45.462;9.210;2024-01-06T02:58:45;9.80;99.90
40257;DHT22;25977;45.462;9.210;2024-01-06T03:01:11;9.80;99.90
40257;DHT22;25977;45.462;9.210;2024-01-06T03:03:37;9.80;99.90
40257;DHT22;25977;45.462;9.210;2024-01-06T03:06:03;9.80;99.90
40257;DHT22;25977;45.462;9.210;2024-01-06T03:08:28;9.80;99.90
40257;DHT22;25977;45.462;9.210;2024-01-06T03:10:55;9.90;99.90
40257;DHT22;25977;45.462;9.210;2024-01-06T03:13:21;9.80;99.90
40257;DHT22;25977;45.462;9.210;2024-01-06T03:15:46;9.80;99.90
40257;DHT22;25977;45.462;9.210;2024-01-06T03:18:12;9.80;99.90
40257;DHT22;25977;45.462;9.210;2024-01-06T03:20:38;9.80;99.90
40257;DHT22;25977;45.462;9.210;2024-01-06T03:23:03;9.80;99.90
40257;DHT22;25977;45.462;9.210;2024-01-06T03:25:29;9.90;99.90
40257;DHT22;25977;45.462;9.210;2024-01-06T03:27:55;9.90;99.90
40257;DHT22;25977;45.462;9.210;2024-01-06T03:30:20;9.90;99.90
40257;DHT22;25977;45.462;9.210;2024-01-06T03:32:46;9.90;99.90
40257;DHT22;25977;45.462;9.210;2024-01-06T03:35:11;9.90;99.90
40257;DHT22;25977;45.462;9.210;2024-01-06T03:37:37;9.90;99.90
40257;DHT22;25977;45.462;9.210;2024-01-06T03:40:03;9.90;99.90
40257;DHT22;25977;45.462;9.210;2024-01-06T03:42:29;9.90;99.90
40257;DHT22;25977;45.462;9.210;2024-01-06T03:44:54;10.00;99.90
40257;DHT22;25977;45.462;9.210;2024-01-06T03:47:20;9.90;99.90
40257;DHT22;25977;45.462;9.210;2024-01-06T03:49:46;9.90;99.90
40257;DHT22;25977;45.462;9.210;2024-01-06T03:52:12;10.00;99.90
40257;DHT22;25977;45.462;9.210;2024-01-06T03:54:39;9.90;99.90
40257;DHT22;25977;45.462;9.210;2024-01-06T03:57:05;9.90;99.90
40257;DHT22;25977;45.462;9.210;2024-01-06T03:59:30;9.90;99.90
40257;DHT22;25977;45.462;9.210;2024-01-06T04:01:56;10.00;99.90
40257;DHT22;25977;45.462;9.210;2024-01-06T04:04:22;9.90;99.90
40257;DHT22;25977;45.462;9.210;2024-01-06T04:06:47;9.90;99.90
40257;DHT22;25977;45.462;9.210;2024-01-06T04:09:13;9.90;99.90
40257;DHT22;25977;45.462;9.210;2024-01-06T04:11:39;9.90;99.90
40257;DHT22;25977;45.462;9.210;2024-01-06T04:14:04;9.90;99.90
40257;DHT22;25977;45.462;9.210;2024-01-06T04:16:30;9.90;99.90
40257;DHT22;25977;45.462;9.210;2024-01-06T04:18:55;9.90;99.90
40257;DHT22;25977;45.462;9.210;2024-01-06T04:21:21;9.90;99.90
40257;DHT22;25977;45.462;9.210;2024-01-06T04:23:47;9.90;99.90
40257;DHT22;25977;45.462;9.210;2024-01-06T04:26:13;9.90;99.90
40257;DHT22;25977;45.462;9.210;2024-01-06T04:28:39;9.80;99.90
40257;DHT22;25977;45.462;9.210;2024-01-06T04:31:04;9.80;99.90
40257;DHT22;25977;45.462;9.210;2024-01-06T04:33:30;9.90;99.90
40257;DHT22;25977;45.462;9.210;2024-01-06T04:35:56;9.90;99.90
40257;DHT22;25977;45.462;9.210;2024-01-06T04:38:23;9.80;99.90
40257;DHT22;25977;45.462;9.210;2024-01-06T04:40:49;9.90;99.90
40257;DHT22;25977;45.462;9.210;2024-01-06T04:43:14;9.90;99.90
40257;DHT22;25977;45.462;9.210;2024-01-06T04:45:40;9.90;99.90
40257;DHT22;25977;45.462;9.210;2024-01-06T04:48:06;9.90;99.90
40257;DHT22;25977;45.462;9.210;2024-01-06T04:50:32;9.90;99.90
40257;DHT22;25977;45.462;9.210;2024-01-06T04:52:58;9.90;99.90
40257;DHT22;25977;45.462;9.210;2024-01-06T04:55:23;9.90;99.90
40257;DHT22;25977;45.462;9.210;2024-01-06T04:57:49;9.90;99.90
40257;DHT22;25977;45.462;9.210;2024-01-06T05:00:15;9.90;99.90
40257;DHT22;25977;45.462;9.210;2024-01-06T05:02:41;9.90;99.90
40257;DHT22;25977;45.462;9.210;2024-01-06T05:05:06;9.80;99.90
40257;DHT22;25977;45.462;9.210;2024-01-06T05:07:32;9.80;99.90
40257;DHT22;25977;45.462;9.210;2024-01-06T05:09:58;9.80;99.90
40257;DHT22;25977;45.462;9.210;2024-01-06T05:12:23;9.80;99.90
40257;DHT22;25977;45.462;9.210;2024-01-06T05:14:49;9.80;99.90
40257;DHT22;25977;45.462;9.210;2024-01-06T05:17:15;9.80;99.90
40257;DHT22;25977;45.462;9.210;2024-01-06T05:19:40;9.80;99.90
40257;DHT22;25977;45.462;9.210;2024-01-06T05:22:06;9.80;99.90
40257;DHT22;25977;45.462;9.210;2024-01-06T05:24:32;9.80;99.90
40257;DHT22;25977;45.462;9.210;2024-01-06T05:26:57;9.70;99.90
40257;DHT22;25977;45.462;9.210;2024-01-06T05:29:23;9.70;99.90
40257;DHT22;25977;45.462;9.210;2024-01-06T05:31:51;9.80;99.90
40257;DHT22;25977;45.462;9.210;2024-01-06T05:34:17;9.70;99.90
40257;DHT22;25977;45.462;9.210;2024-01-06T05:36:42;9.80;99.90
40257;DHT22;25977;45.462;9.210;2024-01-06T05:39:08;9.70;99.90
40257;DHT22;25977;45.462;9.210;2024-01-06T05:41:40;10.30;99.90
40257;DHT22;25977;45.462;9.210;2024-01-06T05:44:06;10.00;99.90
40257;DHT22;25977;45.462;9.210;2024-01-06T05:46:31;9.60;99.90
40257;DHT22;25977;45.462;9.210;2024-01-06T05:48:57;9.60;99.90
40257;DHT22;25977;45.462;9.210;2024-01-06T05:51:23;9.60;99.90
40257;DHT22;25977;45.462;9.210;2024-01-06T05:53:49;9.70;99.90
40257;DHT22;25977;45.462;9.210;2024-01-06T05:56:24;9.70;99.90
40257;DHT22;25977;45.462;9.210;2024-01-06T05:58:51;9.60;99.90
40257;DHT22;25977;45.462;9.210;2024-01-06T06:01:18;9.60;99.90
40257;DHT22;25977;45.462;9.210;2024-01-06T06:03:44;9.50;99.90
40257;DHT22;25977;45.462;9.210;2024-01-06T06:06:10;9.60;99.90
40257;DHT22;25977;45.462;9.210;2024-01-06T06:08:35;9.60;99.80
40257;DHT22;25977;45.462;9.210;2024-01-06T06:11:01;9.60;99.80
40257;DHT22;25977;45.462;9.210;2024-01-06T06:13:28;9.50;99.90
40257;DHT22;25977;45.462;9.210;2024-01-06T06:15:54;9.60;99.90
40257;DHT22;25977;45.462;9.210;2024-01-06T06:18:20;9.50;99.90
40257;DHT22;25977;45.462;9.210;2024-01-06T06:20:46;9.60;99.90
40257;DHT22;25977;45.462;9.210;2024-01-06T06:23:12;9.60;99.90
40257;DHT22;25977;45.462;9.210;2024-01-06T06:25:39;9.60;99.90
40257;DHT22;25977;45.462;9.210;2024-01-06T06:28:05;9.50;99.90
40257;DHT22;25977;45.462;9.210;2024-01-06T06:30:30;9.50;99.90
40257;DHT22;25977;45.462;9.210;2024-01-06T06:32:56;9.60;99.90
40257;DHT22;25977;45.462;9.210;2024-01-06T06:35:23;9.60;99.90
40257;DHT22;25977;45.462;9.210;2024-01-06T06:37:49;9.60;99.90
40257;DHT22;25977;45.462;9.210;2024-01-06T06:40:15;9.60;99.90
40257;DHT22;25977;45.462;9.210;2024-01-06T06:42:40;9.60;99.90
40257;DHT22;25977;45.462;9.210;2024-01-06T06:45:06;9.60;99.90
40257;DHT22;25977;45.462;9.210;2024-01-06T06:47:32;9.50;99.90
40257;DHT22;25977;45.462;9.210;2024-01-06T06:49:58;9.50;99.90
40257;DHT22;25977;45.462;9.210;2024-01-06T06:52:24;10.60;99.90
40257;DHT22;25977;45.462;9.210;2024-01-06T06:54:50;9.50;99.90
40257;DHT22;25977;45.462;9.210;2024-01-06T06:57:17;9.50;99.90
40257;DHT22;25977;45.462;9.210;2024-01-06T06:59:43;9.50;99.90
40257;DHT22;25977;45.462;9.210;2024-01-06T07:02:08;9.40;99.90
40257;DHT22;25977;45.462;9.210;2024-01-06T07:04:34;9.40;99.70
40257;DHT22;25977;45.462;9.210;2024-01-06T07:07:00;9.40;99.90
40257;DHT22;25977;45.462;9.210;2024-01-06T07:09:26;9.50;99.80
40257;DHT22;25977;45.462;9.210;2024-01-06T07:11:51;9.40;99.80
40257;DHT22;25977;45.462;9.210;2024-01-06T07:14:17;9.40;99.80
40257;DHT22;25977;45.462;9.210;2024-01-06T07:16:43;9.40;99.90
40257;DHT22;25977;45.462;9.210;2024-01-06T07:19:08;9.50;99.90
40257;DHT22;25977;45.462;9.210;2024-01-06T07:21:34;9.50;99.90
40257;DHT22;25977;45.462;9.210;2024-01-06T07:24:01;9.50;99.90
40257;DHT22;25977;45.462;9.210;2024-01-06T07:26:27;9.50;99.90
40257;DHT22;25977;45.462;9.210;2024-01-06T07:28:53;9.50;99.80
40257;DHT22;25977;45.462;9.210;2024-01-06T07:31:19;9.40;99.80
40257;DHT22;25977;45.462;9.210;2024-01-06T07:33:45;9.50;99.90
40257;DHT22;25977;45.462;9.210;2024-01-06T07:36:10;9.50;99.90
40257;DHT22;25977;45.462;9.210;2024-01-06T07:38:37;9.50;99.60
40257;DHT22;25977;45.462;9.210;2024-01-06T07:41:03;9.50;99.40
40257;DHT22;25977;45.462;9.210;2024-01-06T07:43:30;9.50;99.40
40257;DHT22;25977;45.462;9.210;2024-01-06T07:45:56;9.50;99.70
40257;DHT22;25977;45.462;9.210;2024-01-06T07:48:22;9.50;99.50
40257;DHT22;25977;45.462;9.210;2024-01-06T07:50:47;9.50;99.50
40257;DHT22;25977;45.462;9.210;2024-01-06T07:53:13;9.50;99.50
40257;DHT22;25977;45.462;9.210;2024-01-06T07:55:42;9.50;99.40
40257;DHT22;25977;45.462;9.210;2024-01-06T07:58:08;9.50;99.40
40257;DHT22;25977;45.462;9.210;2024-01-06T08:00:34;9.50;99.40
40257;DHT22;25977;45.462;9.210;2024-01-06T08:02:59;9.40;99.40
40257;DHT22;25977;45.462;9.210;2024-01-06T08:05:25;9.50;99.40
40257;DHT22;25977;45.462;9.210;2024-01-06T08:07:52;9.50;99.50
40257;DHT22;25977;45.462;9.210;2024-01-06T08:10:18;9.50;99.50
40257;DHT22;25977;45.462;9.210;2024-01-06T08:12:43;9.50;99.70
40257;DHT22;25977;45.462;9.210;2024-01-06T08:15:09;9.50;99.70
40257;DHT22;25977;45.462;9.210;2024-01-06T08:17:35;9.50;99.60
40257;DHT22;25977;45.462;9.210;2024-01-06T08:20:01;9.50;99.60
40257;DHT22;25977;45.462;9.210;2024-01-06T08:22:29;9.50;99.60
40257;DHT22;25977;45.462;9.210;2024-01-06T08:24:54;9.50;99.60
40257;DHT22;25977;45.462;9.210;2024-01-06T08:27:20;9.50;99.70
40257;DHT22;25977;45.462;9.210;2024-01-06T08:29:47;9.60;99.70
40257;DHT22;25977;45.462;9.210;2024-01-06T08:32:12;9.60;99.70
40257;DHT22;25977;45.462;9.210;2024-01-06T08:34:40;9.70;99.60
40257;DHT22;25977;45.462;9.210;2024-01-06T08:37:06;9.70;99.50
40257;DHT22;25977;45.462;9.210;2024-01-06T08:39:32;9.80;99.40
40257;DHT22;25977;45.462;9.210;2024-01-06T08:41:58;9.70;99.30
40257;DHT22;25977;45.462;9.210;2024-01-06T08:44:24;9.70;99.20
40257;DHT22;25977;45.462;9.210;2024-01-06T08:46:49;9.70;99.20
40257;DHT22;25977;45.462;9.210;2024-01-06T08:49:16;9.70;99.20
40257;DHT22;25977;45.462;9.210;2024-01-06T08:51:41;9.70;99.20
40257;DHT22;25977;45.462;9.210;2024-01-06T08:54:07;9.70;99.20
40257;DHT22;25977;45.462;9.210;2024-01-06T08:56:34;9.70;99.20
40257;DHT22;25977;45.462;9.210;2024-01-06T08:58:59;9.60;99.90
40257;DHT22;25977;45.462;9.210;2024-01-06T09:01:25;10.10;99.50
40257;DHT22;25977;45.462;9.210;2024-01-06T09:06:17;9.60;99.30
40257;DHT22;25977;45.462;9.210;2024-01-06T09:08:42;9.70;99.50
40257;DHT22;25977;45.462;9.210;2024-01-06T09:11:08;9.70;99.50
40257;DHT22;25977;45.462;9.210;2024-01-06T09:13:34;9.70;99.50
40257;DHT22;25977;45.462;9.210;2024-01-06T09:16:00;9.80;99.50
40257;DHT22;25977;45.462;9.210;2024-01-06T09:18:26;9.70;99.40
40257;DHT22;25977;45.462;9.210;2024-01-06T09:20:52;9.70;99.40
40257;DHT22;25977;45.462;9.210;2024-01-06T09:23:19;9.70;99.40
40257;DHT22;25977;45.462;9.210;2024-01-06T09:25:46;9.70;99.40
40257;DHT22;25977;45.462;9.210;2024-01-06T09:28:15;9.70;99.40
40257;DHT22;25977;45.462;9.210;2024-01-06T09:30:41;9.60;99.50
40257;DHT22;25977;45.462;9.210;2024-01-06T09:33:07;9.70;99.60
40257;DHT22;25977;45.462;9.210;2024-01-06T09:35:35;9.70;99.60
40257;DHT22;25977;45.462;9.210;2024-01-06T09:38:01;9.70;99.60
40257;DHT22;25977;45.462;9.210;2024-01-06T09:40:26;9.70;99.60
40257;DHT22;25977;45.462;9.210;2024-01-06T09:42:56;9.60;99.50
40257;DHT22;25977;45.462;9.210;2024-01-06T09:45:22;9.60;99.50
40257;DHT22;25977;45.462;9.210;2024-01-06T09:47:51;9.70;99.50
40257;DHT22;25977;45.462;9.210;2024-01-06T09:50:20;9.70;99.50
40257;DHT22;25977;45.462;9.210;2024-01-06T09:52:48;9.70;99.40
40257;DHT22;25977;45.462;9.210;2024-01-06T09:55:29;9.70;99.40
40257;DHT22;25977;45.462;9.210;2024-01-06T09:57:55;9.70;99.40
40257;DHT22;25977;45.462;9.210;2024-01-06T10:00:21;9.70;99.40
40257;DHT22;25977;45.462;9.210;2024-01-06T10:02:50;9.70;99.50
40257;DHT22;25977;45.462;9.210;2024-01-06T10:05:17;9.70;99.50
40257;DHT22;25977;45.462;9.210;2024-01-06T10:07:47;9.70;99.40
40257;DHT22;25977;45.462;9.210;2024-01-06T10:10:13;9.70;99.40
40257;DHT22;25977;45.462;9.210;2024-01-06T10:12:40;9.70;99.60
40257;DHT22;25977;45.462;9.210;2024-01-06T10:15:07;9.70;99.40
40257;DHT22;25977;45.462;9.210;2024-01-06T10:17:36;9.70;99.40
40257;DHT22;25977;45.462;9.210;2024-01-06T10:20:03;9.80;99.40
40257;DHT22;25977;45.462;9.210;2024-01-06T10:22:32;9.70;99.50
40257;DHT22;25977;45.462;9.210;2024-01-06T10:25:00;9.70;99.40
40257;DHT22;25977;45.462;9.210;2024-01-06T10:27:25;9.70;99.50
40257;DHT22;25977;45.462;9.210;2024-01-06T10:29:51;9.70;99.50
40257;DHT22;25977;45.462;9.210;2024-01-06T10:32:17;9.70;99.70
40257;DHT22;25977;45.462;9.210;2024-01-06T10:34:44;9.70;99.50
40257;DHT22;25977;45.462;9.210;2024-01-06T10:37:11;9.70;99.50
40257;DHT22;25977;45.462;9.210;2024-01-06T10:39:36;9.80;99.50
40257;DHT22;25977;45.462;9.210;2024-01-06T10:42:04;9.70;99.50
40257;DHT22;25977;45.462;9.210;2024-01-06T10:44:31;9.70;99.50
40257;DHT22;25977;45.462;9.210;2024-01-06T10:46:57;9.70;99.50
40257;DHT22;25977;45.462;9.210;2024-01-06T10:49:25;9.80;99.60
40257;DHT22;25977;45.462;9.210;2024-01-06T10:51:53;9.80;99.40
40257;DHT22;25977;45.462;9.210;2024-01-06T10:54:21;9.80;99.50
40257;DHT22;25977;45.462;9.210;2024-01-06T10:56:48;9.80;99.50
40257;DHT22;25977;45.462;9.210;2024-01-06T10:59:16;9.80;99.50
40257;DHT22;25977;45.462;9.210;2024-01-06T11:01:42;9.80;99.50
40257;DHT22;25977;45.462;9.210;2024-01-06T11:04:09;9.80;99.40
40257;DHT22;25977;45.462;9.210;2024-01-06T11:06:36;9.80;99.50
40257;DHT22;25977;45.462;9.210;2024-01-06T11:09:14;9.80;99.40
40257;DHT22;25977;45.462;9.210;2024-01-06T11:11:42;9.90;99.40
40257;DHT22;25977;45.462;9.210;2024-01-06T11:14:21;9.90;99.40
40257;DHT22;25977;45.462;9.210;2024-01-06T11:16:47;9.90;99.40
40257;DHT22;25977;45.462;9.210;2024-01-06T11:24:49;9.90;99.30
40257;DHT22;25977;45.462;9.210;2024-01-06T11:27:25;10.00;99.40
40257;DHT22;25977;45.462;9.210;2024-01-06T11:29:59;9.90;99.40
40257;DHT22;25977;45.462;9.210;2024-01-06T11:34:51;10.00;99.50
40257;DHT22;25977;45.462;9.210;2024-01-06T11:37:24;9.90;99.50
40257;DHT22;25977;45.462;9.210;2024-01-06T11:39:50;10.00;99.50
40257;DHT22;25977;45.462;9.210;2024-01-06T11:42:16;10.00;99.50
40257;DHT22;25977;45.462;9.210;2024-01-06T11:44:49;10.00;99.40
40257;DHT22;25977;45.462;9.210;2024-01-06T11:47:17;10.00;99.40
40257;DHT22;25977;45.462;9.210;2024-01-06T11:49:45;10.00;99.40
40257;DHT22;25977;45.462;9.210;2024-01-06T11:52:12;10.00;99.40
40257;DHT22;25977;45.462;9.210;2024-01-06T11:54:38;10.00;99.30
40257;DHT22;25977;45.462;9.210;2024-01-06T11:57:04;10.00;99.40
40257;DHT22;25977;45.462;9.210;2024-01-06T11:59:30;10.10;99.40
40257;DHT22;25977;45.462;9.210;2024-01-06T12:01:55;10.00;99.30
40257;DHT22;25977;45.462;9.210;2024-01-06T12:04:21;10.00;99.40
40257;DHT22;25977;45.462;9.210;2024-01-06T12:06:47;10.00;99.40
40257;DHT22;25977;45.462;9.210;2024-01-06T12:09:13;10.00;99.30
40257;DHT22;25977;45.462;9.210;2024-01-06T12:11:42;10.00;99.30
40257;DHT22;25977;45.462;9.210;2024-01-06T12:14:10;10.10;99.50
40257;DHT22;25977;45.462;9.210;2024-01-06T12:16:36;10.00;99.50
40257;DHT22;25977;45.462;9.210;2024-01-06T12:19:02;10.00;99.80
40257;DHT22;25977;45.462;9.210;2024-01-06T12:21:29;10.10;99.90
40257;DHT22;25977;45.462;9.210;2024-01-06T12:24:18;10.10;99.80
40257;DHT22;25977;45.462;9.210;2024-01-06T12:26:46;10.10;99.90
40257;DHT22;25977;45.462;9.210;2024-01-06T12:29:16;10.10;99.90
40257;DHT22;25977;45.462;9.210;2024-01-06T12:31:43;10.10;99.90
40257;DHT22;25977;45.462;9.210;2024-01-06T12:34:10;10.10;99.90
40257;DHT22;25977;45.462;9.210;2024-01-06T12:36:39;10.00;99.90
40257;DHT22;25977;45.462;9.210;2024-01-06T12:39:11;10.00;99.90
40257;DHT22;25977;45.462;9.210;2024-01-06T12:41:40;10.00;99.90
40257;DHT22;25977;45.462;9.210;2024-01-06T12:44:06;10.00;99.90
40257;DHT22;25977;45.462;9.210;2024-01-06T12:46:33;10.00;99.90
40257;DHT22;25977;45.462;9.210;2024-01-06T12:48:58;10.10;99.90
40257;DHT22;25977;45.462;9.210;2024-01-06T12:51:24;10.10;99.90
40257;DHT22;25977;45.462;9.210;2024-01-06T12:53:50;10.10;99.90
40257;DHT22;25977;45.462;9.210;2024-01-06T12:56:17;10.10;99.90
40257;DHT22;25977;45.462;9.210;2024-01-06T12:58:42;10.10;99.90
40257;DHT22;25977;45.462;9.210;2024-01-06T13:01:09;10.10;99.90
40257;DHT22;25977;45.462;9.210;2024-01-06T13:03:35;10.10;99.90
40257;DHT22;25977;45.462;9.210;2024-01-06T13:06:01;10.20;99.90
40257;DHT22;25977;45.462;9.210;2024-01-06T13:08:27;10.20;99.90
40257;DHT22;25977;45.462;9.210;2024-01-06T13:10:54;10.20;99.90
40257;DHT22;25977;45.462;9.210;2024-01-06T13:13:20;10.20;99.90
40257;DHT22;25977;45.462;9.210;2024-01-06T13:15:45;10.20;99.90
40257;DHT22;25977;45.462;9.210;2024-01-06T13:18:12;10.20;99.80
40257;DHT22;25977;45.462;9.210;2024-01-06T13:20:39;10.20;99.60
40257;DHT22;25977;45.462;9.210;2024-01-06T13:23:06;10.20;99.50
40257;DHT22;25977;45.462;9.210;2024-01-06T13:25:33;10.20;99.50
40257;DHT22;25977;45.462;9.210;2024-01-06T13:27:58;10.30;99.50
40257;DHT22;25977;45.462;9.210;2024-01-06T13:30:25;10.10;99.40
40257;DHT22;25977;45.462;9.210;2024-01-06T13:32:51;10.20;99.40
40257;DHT22;25977;45.462;9.210;2024-01-06T13:35:22;10.20;99.40
40257;DHT22;25977;45.462;9.210;2024-01-06T13:37:53;10.20;99.30
40257;DHT22;25977;45.462;9.210;2024-01-06T13:40:21;10.20;99.40
40257;DHT22;25977;45.462;9.210;2024-01-06T13:42:50;10.30;99.50
40257;DHT22;25977;45.462;9.210;2024-01-06T13:45:17;10.20;99.40
40257;DHT22;25977;45.462;9.210;2024-01-06T13:47:43;10.20;99.50
40257;DHT22;25977;45.462;9.210;2024-01-06T13:50:15;10.10;99.40
40257;DHT22;25977;45.462;9.210;2024-01-06T13:52:42;10.20;99.40
40257;DHT22;25977;45.462;9.210;2024-01-06T13:55:07;10.20;99.40
40257;DHT22;25977;45.462;9.210;2024-01-06T13:57:34;10.20;99.40
40257;DHT22;25977;45.462;9.210;2024-01-06T13:59:59;10.10;99.40
40257;DHT22;25977;45.462;9.210;2024-01-06T14:02:25;10.20;99.50
40257;DHT22;25977;45.462;9.210;2024-01-06T14:04:51;10.20;99.50
40257;DHT22;25977;45.462;9.210;2024-01-06T14:07:17;10.20;99.40
40257;DHT22;25977;45.462;9.210;2024-01-06T14:09:48;10.10;99.40
40257;DHT22;25977;45.462;9.210;2024-01-06T14:12:13;10.20;99.40
40257;DHT22;25977;45.462;9.210;2024-01-06T14:14:39;10.20;99.30
40257;DHT22;25977;45.462;9.210;2024-01-06T14:17:07;10.20;99.30
40257;DHT22;25977;45.462;9.210;2024-01-06T14:19:32;10.20;99.40
40257;DHT22;25977;45.462;9.210;2024-01-06T14:21:58;10.20;99.50
40257;DHT22;25977;45.462;9.210;2024-01-06T14:24:24;10.20;99.40
40257;DHT22;25977;45.462;9.210;2024-01-06T14:26:50;10.20;99.40
40257;DHT22;25977;45.462;9.210;2024-01-06T14:29:16;10.20;99.30
40257;DHT22;25977;45.462;9.210;2024-01-06T14:31:45;10.20;99.40
40257;DHT22;25977;45.462;9.210;2024-01-06T14:34:12;10.20;99.40
40257;DHT22;25977;45.462;9.210;2024-01-06T14:36:37;10.10;99.40
40257;DHT22;25977;45.462;9.210;2024-01-06T14:39:03;10.10;99.40
40257;DHT22;25977;45.462;9.210;2024-01-06T14:41:32;10.10;99.50
40257;DHT22;25977;45.462;9.210;2024-01-06T14:43:58;10.10;99.50
40257;DHT22;25977;45.462;9.210;2024-01-06T14:46:24;10.20;99.50
40257;DHT22;25977;45.462;9.210;2024-01-06T14:48:50;11.50;99.80
40257;DHT22;25977;45.462;9.210;2024-01-06T14:51:15;10.10;99.50
40257;DHT22;25977;45.462;9.210;2024-01-06T14:53:41;10.10;99.60
40257;DHT22;25977;45.462;9.210;2024-01-06T14:56:07;10.10;99.60
40257;DHT22;25977;45.462;9.210;2024-01-06T14:58:32;10.10;99.80
40257;DHT22;25977;45.462;9.210;2024-01-06T15:00:58;10.00;99.90
40257;DHT22;25977;45.462;9.210;2024-01-06T15:03:25;10.10;99.90
40257;DHT22;25977;45.462;9.210;2024-01-06T15:05:50;10.10;99.90
40257;DHT22;25977;45.462;9.210;2024-01-06T15:08:16;10.10;99.80
40257;DHT22;25977;45.462;9.210;2024-01-06T15:10:42;10.10;99.80
40257;DHT22;25977;45.462;9.210;2024-01-06T15:13:07;10.10;99.80
40257;DHT22;25977;45.462;9.210;2024-01-06T15:15:33;10.10;99.90
40257;DHT22;25977;45.462;9.210;2024-01-06T15:17:59;10.20;99.90
40257;DHT22;25977;45.462;9.210;2024-01-06T15:20:24;10.10;99.80
40257;DHT22;25977;45.462;9.210;2024-01-06T15:22:50;10.10;99.80
40257;DHT22;25977;45.462;9.210;2024-01-06T15:25:16;10.10;99.80
40257;DHT22;25977;45.462;9.210;2024-01-06T15:27:43;10.10;99.90
40257;DHT22;25977;45.462;9.210;2024-01-06T15:30:09;10.10;99.90
40257;DHT22;25977;45.462;9.210;2024-01-06T15:32:35;10.10;99.90
40257;DHT22;25977;45.462;9.210;2024-01-06T15:35:01;10.70;99.90
40257;DHT22;25977;45.462;9.210;2024-01-06T15:37:27;10.00;99.90
40257;DHT22;25977;45.462;9.210;2024-01-06T15:39:53;10.00;99.90
40257;DHT22;25977;45.462;9.210;2024-01-06T15:42:19;10.10;99.90
40257;DHT22;25977;45.462;9.210;2024-01-06T15:44:44;10.00;99.90
40257;DHT22;25977;45.462;9.210;2024-01-06T15:47:10;10.00;99.90